Time;durP1;ratioP1;P1;durP2;ratioP2;P2;SDS_P1;SDS_P2;PMS_P1;PMS_P2;Temp;Humidity;BMP_temperature;BMP_pressure;BME280_temperature;BME280_humidity;BME280_pressure;Samples;Min_cycle;Max_cycle;Signal;HPM_P1;HPM_P2
2022/08/26 00:02:11;;;;;;;13.05;2.50;;;16.50;99.90;;;;;;5049368;28;20449;-86
2022/08/26 00:04:36;;;;;;;16.65;2.83;;;16.50;99.90;;;;;;5049476;28;20013;-86
2022/08/26 00:07:03;;;;;;;9.98;2.45;;;16.50;99.90;;;;;;5050192;28;20074;-93
2022/08/26 00:09:29;;;;;;;16.98;2.35;;;16.50;99.90;;;;;;5049237;28;20071;-92
2022/08/26 00:11:54;;;;;;;11.35;2.55;;;16.50;99.90;;;;;;5048541;28;20766;-85
2022/08/26 00:14:22;;;;;;;10.70;2.53;;;16.50;99.90;;;;;;5049314;28;20025;-92
2022/08/26 00:16:47;;;;;;;14.23;2.50;;;16.40;99.90;;;;;;5049148;28;20485;-86
2022/08/26 00:19:14;;;;;;;8.73;2.00;;;16.40;99.90;;;;;;5048214;28;20029;-92
2022/08/26 00:21:39;;;;;;;11.63;2.20;;;16.40;99.90;;;;;;5048047;28;20033;-85
2022/08/26 00:24:05;;;;;;;12.90;2.67;;;16.40;99.90;;;;;;5050187;28;20021;-85
2022/08/26 00:26:33;;;;;;;16.48;3.17;;;16.40;99.90;;;;;;5049738;28;20455;-88
2022/08/26 00:28:59;;;;;;;7.93;2.15;;;16.40;99.90;;;;;;5047916;28;20052;-91
2022/08/26 00:31:25;;;;;;;12.40;2.70;;;16.30;99.90;;;;;;5048749;28;20503;-85
2022/08/26 00:33:50;;;;;;;15.23;2.42;;;16.30;99.90;;;;;;5048600;28;20104;-86
2022/08/26 00:36:16;;;;;;;15.27;2.88;;;16.30;99.90;;;;;;5049027;28;20075;-85
2022/08/26 00:38:42;;;;;;;10.32;2.38;;;16.30;99.90;;;;;;5049080;28;20484;-85
2022/08/26 00:41:08;;;;;;;11.32;2.78;;;16.30;99.90;;;;;;5047511;28;20107;-90
2022/08/26 00:43:35;;;;;;;10.88;2.50;;;16.30;99.90;;;;;;5049173;28;20132;-85
2022/08/26 00:46:11;;;;;;;19.08;2.90;;;16.30;99.90;;;;;;5048916;28;20033;-91
2022/08/26 00:48:38;;;;;;;16.20;2.85;;;16.40;99.90;;;;;;5049941;28;20052;-85
2022/08/26 00:51:30;;;;;;;14.07;2.83;;;17.00;99.90;;;;;;5049865;28;20096;-85
2022/08/26 00:54:06;;;;;;;13.15;2.67;;;16.30;99.90;;;;;;5047270;28;20036;-86
2022/08/26 00:56:42;;;;;;;9.20;2.60;;;16.30;99.90;;;;;;5047643;28;20393;-85
2022/08/26 00:59:12;;;;;;;16.65;2.40;;;16.30;99.90;;;;;;5049263;28;20024;-86
2022/08/26 01:01:42;;;;;;;13.00;2.83;;;16.30;99.90;;;;;;5055493;28;20021;-85
2022/08/26 01:04:10;;;;;;;13.60;2.40;;;16.30;99.90;;;;;;5053081;28;20485;-85
2022/08/26 01:06:36;;;;;;;17.88;3.05;;;16.40;99.90;;;;;;5054000;28;20025;-85
2022/08/26 01:09:03;;;;;;;17.65;2.90;;;16.30;99.90;;;;;;5051132;28;20033;-92
2022/08/26 01:11:30;;;;;;;13.27;2.85;;;16.20;99.90;;;;;;5048506;28;20079;-93
2022/08/26 01:14:01;;;;;;;11.70;2.83;;;16.20;99.90;;;;;;5049396;28;20052;-93
2022/08/26 01:16:27;;;;;;;17.35;2.22;;;16.20;99.90;;;;;;5047554;28;20500;-86
2022/08/26 01:19:02;;;;;;;14.68;2.95;;;16.20;99.90;;;;;;5047097;28;20071;-85
2022/08/26 01:22:05;;;;;;;11.85;2.40;;;16.20;99.90;;;;;;5047461;28;20397;-86
2022/08/26 01:24:30;;;;;;;13.63;2.70;;;16.10;99.90;;;;;;5036609;28;20092;-85
2022/08/26 01:27:03;;;;;;;11.52;2.40;;;16.10;99.90;;;;;;5047645;28;20112;-86
2022/08/26 01:29:32;;;;;;;9.98;3.10;;;16.10;99.90;;;;;;5048686;28;20029;-85
2022/08/26 01:31:58;;;;;;;10.68;2.60;;;16.00;99.90;;;;;;5048693;28;20013;-87
2022/08/26 01:34:35;;;;;;;8.75;2.25;;;16.00;99.90;;;;;;5048644;28;20029;-85
2022/08/26 01:37:18;;;;;;;7.40;2.33;;;16.00;99.90;;;;;;5048458;28;20017;-93
2022/08/26 01:39:47;;;;;;;12.07;2.70;;;16.00;99.90;;;;;;5048426;28;20259;-91
2022/08/26 01:42:14;;;;;;;13.38;2.40;;;15.90;99.90;;;;;;5046667;28;20041;-86
2022/08/26 01:44:44;;;;;;;9.95;2.40;;;15.90;99.90;;;;;;5052149;28;20083;-87
2022/08/26 01:47:13;;;;;;;11.68;2.75;;;15.90;99.90;;;;;;5059231;28;20021;-87
2022/08/26 01:49:41;;;;;;;11.40;2.35;;;15.90;99.90;;;;;;5050897;28;20025;-86
2022/08/26 01:52:08;;;;;;;12.40;2.72;;;15.80;99.90;;;;;;5054153;28;20031;-90
2022/08/26 01:54:35;;;;;;;10.27;2.55;;;16.30;99.90;;;;;;5051623;28;20118;-90
2022/08/26 01:57:01;;;;;;;13.75;2.67;;;15.80;99.90;;;;;;5064272;28;20028;-86
2022/08/26 01:59:28;;;;;;;12.57;2.80;;;15.80;99.90;;;;;;5060512;28;20032;-86
2022/08/26 02:01:54;;;;;;;16.70;2.58;;;16.10;99.90;;;;;;5051069;28;20033;-87
2022/08/26 02:04:32;;;;;;;10.55;2.10;;;15.80;99.90;;;;;;5051968;28;20021;-87
2022/08/26 02:07:02;;;;;;;11.95;2.78;;;15.70;99.90;;;;;;5051311;28;20053;-90
2022/08/26 02:09:28;;;;;;;15.35;2.78;;;15.70;99.90;;;;;;5051145;28;20078;-86
2022/08/26 02:11:54;;;;;;;8.13;2.40;;;15.60;99.90;;;;;;5051781;28;20025;-86
2022/08/26 02:14:42;;;;;;;14.43;2.58;;;15.70;99.90;;;;;;5051714;28;20566;-91
2022/08/26 02:17:09;;;;;;;13.52;2.75;;;15.70;99.90;;;;;;5052968;28;20037;-92
2022/08/26 02:19:40;;;;;;;12.60;2.70;;;15.70;99.90;;;;;;5051965;28;20032;-85
2022/08/26 02:22:12;;;;;;;9.00;2.47;;;15.60;99.90;;;;;;5051994;28;20455;-90
2022/08/26 02:24:51;;;;;;;10.68;2.40;;;15.60;99.90;;;;;;5059394;28;20028;-90
2022/08/26 02:27:21;;;;;;;8.48;2.10;;;15.50;99.90;;;;;;5072398;28;20032;-91
2022/08/26 02:29:51;;;;;;;17.88;2.78;;;15.80;99.90;;;;;;5071948;28;20028;-89
2022/08/26 02:32:17;;;;;;;9.73;2.40;;;14.80;99.90;;;;;;5063794;28;20500;-93
2022/08/26 02:34:44;;;;;;;17.52;3.20;;;15.60;99.90;;;;;;5051442;28;20044;-87
2022/08/26 02:37:10;;;;;;;12.63;2.67;;;15.60;99.90;;;;;;5052374;28;20108;-89
2022/08/26 02:39:38;;;;;;;13.23;2.70;;;15.60;99.90;;;;;;5051735;28;20021;-86
2022/08/26 02:42:04;;;;;;;13.30;2.53;;;15.60;99.90;;;;;;5050981;28;20044;-88
2022/08/26 02:44:31;;;;;;;13.20;2.63;;;15.60;99.90;;;;;;5051151;28;20022;-86
2022/08/26 02:46:57;;;;;;;15.93;2.35;;;15.60;99.90;;;;;;5050198;28;20029;-91
2022/08/26 02:49:23;;;;;;;14.77;2.42;;;15.60;99.90;;;;;;5050690;28;20562;-92
2022/08/26 02:51:49;;;;;;;18.60;3.08;;;15.60;99.90;;;;;;5049925;28;20421;-90
2022/08/26 02:54:17;;;;;;;11.77;2.63;;;15.60;99.90;;;;;;5051352;28;20023;-86
2022/08/26 02:56:44;;;;;;;10.88;2.45;;;15.50;99.90;;;;;;5051825;28;20192;-87
2022/08/26 02:59:11;;;;;;;15.70;2.67;;;15.50;99.90;;;;;;5051899;28;20481;-87
2022/08/26 03:01:39;;;;;;;12.95;2.63;;;15.50;99.90;;;;;;5049843;28;20099;-90
2022/08/26 03:04:08;;;;;;;15.65;2.75;;;15.50;99.90;;;;;;5051060;28;20029;-90
2022/08/26 03:06:34;;;;;;;14.63;2.75;;;15.50;99.90;;;;;;5051402;28;20025;-87
2022/08/26 03:09:00;;;;;;;17.05;3.00;;;15.40;99.90;;;;;;5050234;28;20051;-90
2022/08/26 03:11:26;;;;;;;14.30;3.25;;;15.40;99.90;;;;;;5049825;28;20393;-90
2022/08/26 03:13:54;;;;;;;12.80;2.92;;;15.40;99.90;;;;;;5051025;28;20029;-88
2022/08/26 03:16:20;;;;;;;12.27;2.90;;;12.90;99.90;;;;;;5051129;28;20060;-92
2022/08/26 03:18:45;;;;;;;8.55;2.38;;;15.40;99.90;;;;;;5051642;28;20052;-88
2022/08/26 03:21:16;;;;;;;12.40;2.75;;;15.40;99.90;;;;;;5051935;28;20068;-92
2022/08/26 03:23:44;;;;;;;14.32;2.90;;;15.40;99.90;;;;;;5051844;28;20028;-90
2022/08/26 03:26:14;;;;;;;14.73;2.63;;;15.30;99.90;;;;;;5050945;28;20020;-90
2022/08/26 03:30:38;;;;;;;11.95;3.00;;;15.40;99.90;;;;;;5050511;28;20036;-92
2022/08/26 03:31:25;;;;;;;8.95;3.28;;;15.30;99.90;;;;;;5050535;28;20029;-90
2022/08/26 03:33:51;;;;;;;6.80;3.00;;;15.30;99.90;;;;;;5050759;28;20021;-92
2022/08/26 03:36:17;;;;;;;15.02;3.30;;;15.30;99.90;;;;;;5050868;28;20025;-88
2022/08/26 03:38:42;;;;;;;12.57;3.13;;;15.30;99.90;;;;;;5050467;28;20017;-92
2022/08/26 03:41:10;;;;;;;14.27;2.90;;;15.30;99.90;;;;;;5049878;28;20508;-89
2022/08/26 03:43:36;;;;;;;12.47;2.90;;;15.30;99.90;;;;;;5052265;28;20047;-91
2022/08/26 03:46:10;;;;;;;11.07;3.00;;;15.20;99.90;;;;;;5058293;28;20755;-88
2022/08/26 03:48:37;;;;;;;11.25;3.00;;;15.30;99.90;;;;;;5064908;28;20654;-86
2022/08/26 03:51:46;;;;;;;9.05;2.75;;;15.20;99.90;;;;;;5071971;28;20009;-88
2022/08/26 03:54:47;;;;;;;12.73;2.70;;;15.20;99.90;;;;;;5067317;28;20435;-88
2022/08/26 03:57:13;;;;;;;12.93;3.17;;;15.30;99.90;;;;;;5067560;28;20033;-94
2022/08/26 03:59:38;;;;;;;11.93;3.20;;;15.30;99.90;;;;;;5057187;28;20032;-86
2022/08/26 04:02:04;;;;;;;11.02;3.22;;;15.30;99.90;;;;;;5051308;28;20044;-94
2022/08/26 04:04:29;;;;;;;8.70;2.80;;;15.20;99.90;;;;;;5053341;28;20021;-86
2022/08/26 04:06:57;;;;;;;8.90;3.20;;;15.20;99.90;;;;;;5057041;28;20037;-87
2022/08/26 04:09:23;;;;;;;10.30;2.90;;;15.20;99.90;;;;;;5054503;28;20074;-94
2022/08/26 04:11:49;;;;;;;7.97;2.75;;;15.20;99.90;;;;;;5052798;28;20025;-86
2022/08/26 04:14:18;;;;;;;10.63;3.50;;;15.20;99.90;;;;;;5058239;28;20028;-87
2022/08/26 04:16:44;;;;;;;15.65;3.58;;;15.10;99.90;;;;;;5055797;28;20037;-94
2022/08/26 04:19:11;;;;;;;11.63;3.38;;;15.30;99.90;;;;;;5056509;28;20028;-86
2022/08/26 04:21:39;;;;;;;14.07;3.22;;;15.10;99.90;;;;;;5055723;28;20037;-89
2022/08/26 04:24:06;;;;;;;11.50;3.35;;;15.10;99.90;;;;;;5065314;28;20031;-87
2022/08/26 04:26:36;;;;;;;12.98;3.30;;;15.10;99.90;;;;;;5065453;28;20029;-95
2022/08/26 04:29:18;;;;;;;11.85;3.53;;;15.00;99.90;;;;;;5051700;28;20021;-87
2022/08/26 04:31:46;;;;;;;11.05;4.00;;;15.00;99.90;;;;;;5046587;28;20017;-86
2022/08/26 04:34:12;;;;;;;10.70;3.53;;;15.00;99.90;;;;;;5049141;28;20017;-87
2022/08/26 04:36:39;;;;;;;9.18;3.42;;;15.00;99.90;;;;;;5064180;28;20028;-87
2022/08/26 04:39:06;;;;;;;15.63;3.72;;;15.00;99.90;;;;;;5057367;28;20138;-87
2022/08/26 04:41:32;;;;;;;9.82;3.20;;;15.00;99.90;;;;;;5065545;28;20013;-89
2022/08/26 04:43:58;;;;;;;10.57;3.28;;;15.00;99.90;;;;;;5056356;28;20033;-87
2022/08/26 04:46:24;;;;;;;11.05;3.20;;;15.00;99.90;;;;;;5060909;28;20036;-86
2022/08/26 04:48:52;;;;;;;13.30;3.50;;;14.90;99.90;;;;;;5061950;28;20024;-86
2022/08/26 04:51:26;;;;;;;5.78;3.20;;;14.90;99.90;;;;;;5062431;28;20017;-95
2022/08/26 04:53:58;;;;;;;7.07;3.22;;;14.80;99.90;;;;;;5058664;28;20051;-88
2022/08/26 04:56:31;;;;;;;13.05;3.15;;;14.80;99.90;;;;;;5062348;28;20029;-87
2022/08/26 04:58:57;;;;;;;9.55;3.10;;;14.70;99.90;;;;;;5066753;28;20033;-86
2022/08/26 05:01:23;;;;;;;14.52;3.40;;;14.80;99.90;;;;;;5062908;28;20039;-86
2022/08/26 05:03:48;;;;;;;17.38;3.53;;;14.80;99.90;;;;;;5064062;28;20042;-88
2022/08/26 05:06:15;;;;;;;14.38;3.22;;;14.80;99.90;;;;;;5059603;28;20028;-87
2022/08/26 05:08:41;;;;;;;11.85;3.30;;;14.70;99.90;;;;;;5058436;28;20285;-87
2022/08/26 05:11:07;;;;;;;17.58;3.83;;;14.80;99.90;;;;;;5054893;28;20015;-87
2022/08/26 05:13:50;;;;;;;10.45;2.92;;;14.80;99.90;;;;;;5061220;28;20084;-86
2022/08/26 05:16:16;;;;;;;10.63;3.08;;;14.90;99.90;;;;;;5069330;28;20085;-87
2022/08/26 05:18:43;;;;;;;15.80;3.80;;;14.70;99.90;;;;;;5069335;28;20040;-94
2022/08/26 05:21:21;;;;;;;11.85;3.65;;;14.70;99.90;;;;;;5053131;28;20029;-86
2022/08/26 05:23:50;;;;;;;14.68;3.70;;;14.70;99.90;;;;;;5056325;28;20358;-86
2022/08/26 05:26:24;;;;;;;15.27;3.55;;;14.70;99.90;;;;;;5061886;28;20104;-86
2022/08/26 05:28:51;;;;;;;18.98;3.00;;;14.70;99.90;;;;;;5060955;28;20035;-90
2022/08/26 05:34:01;;;;;;;8.93;2.90;;;14.70;99.90;;;;;;5033865;22;20524;-87
2022/08/26 05:36:37;;;;;;;9.98;3.22;;;14.70;99.90;;;;;;5025904;28;20076;-87
2022/08/26 05:39:07;;;;;;;10.27;3.35;;;14.70;99.90;;;;;;5032653;28;20010;-87
2022/08/26 05:41:36;;;;;;;8.88;2.85;;;14.70;99.90;;;;;;5027719;28;20022;-87
2022/08/26 05:44:13;;;;;;;7.93;2.75;;;14.70;99.90;;;;;;5026728;28;20014;-86
2022/08/26 05:46:40;;;;;;;16.83;3.35;;;14.60;99.90;;;;;;5026740;28;20026;-87
2022/08/26 05:49:06;;;;;;;10.10;3.30;;;14.60;99.90;;;;;;5020540;28;20037;-86
2022/08/26 05:51:35;;;;;;;13.73;4.43;;;14.60;99.90;;;;;;5027614;28;20433;-87
2022/08/26 05:54:02;;;;;;;8.25;3.28;;;14.60;99.90;;;;;;5021333;28;20110;-87
2022/08/26 05:56:28;;;;;;;8.52;2.95;;;14.60;99.90;;;;;;5023890;28;20025;-88
2022/08/26 05:58:55;;;;;;;9.70;2.90;;;14.60;99.90;;;;;;5023771;28;20018;-87
2022/08/26 06:01:31;;;;;;;8.10;2.53;;;15.00;99.90;;;;;;5027183;28;20014;-89
2022/08/26 06:04:00;;;;;;;13.15;3.30;;;14.70;99.90;;;;;;5025589;28;20049;-87
2022/08/26 06:06:30;;;;;;;18.92;2.83;;;14.70;99.90;;;;;;5016997;28;20022;-87
2022/08/26 06:08:57;;;;;;;12.35;2.90;;;14.70;99.90;;;;;;5016375;28;20037;-88
2022/08/26 06:11:25;;;;;;;6.63;2.72;;;14.70;99.90;;;;;;5016370;28;20010;-87
2022/08/26 06:13:52;;;;;;;7.67;2.57;;;14.60;99.90;;;;;;5022674;28;20025;-86
2022/08/26 06:16:23;;;;;;;7.47;2.67;;;14.60;99.90;;;;;;5020393;28;20293;-87
2022/08/26 06:18:50;;;;;;;11.45;2.78;;;14.70;99.90;;;;;;5025676;28;20093;-87
2022/08/26 06:21:16;;;;;;;13.38;3.13;;;14.60;99.90;;;;;;5038019;28;20034;-86
2022/08/26 06:26:36;;;;;;;9.23;2.33;;;14.90;99.90;;;;;;5019647;28;20115;-87
2022/08/26 06:29:03;;;;;;;17.13;2.85;;;15.00;99.90;;;;;;5022517;28;20112;-87
2022/08/26 06:31:34;;;;;;;12.77;3.28;;;14.90;99.90;;;;;;5038275;28;20053;-87
2022/08/26 06:34:00;;;;;;;15.10;3.00;;;14.90;99.90;;;;;;5020327;28;20042;-87
2022/08/26 06:36:29;;;;;;;12.23;2.95;;;14.90;99.90;;;;;;5022090;28;20050;-86
2022/08/26 06:38:57;;;;;;;;;;;14.90;99.90;;;;;;5016029;28;20034;-87
2022/08/26 06:41:23;;;;;;;17.17;3.17;;;15.30;99.90;;;;;;5018465;28;19905;-86
2022/08/26 06:43:49;;;;;;;15.60;2.78;;;15.00;99.90;;;;;;5016095;28;20029;-86
2022/08/26 06:46:17;;;;;;;15.48;3.65;;;15.00;99.90;;;;;;5021713;28;20361;-86
2022/08/26 06:48:43;;;;;;;18.05;3.75;;;14.90;99.90;;;;;;5017671;28;20026;-86
2022/08/26 06:51:14;;;;;;;21.60;3.70;;;15.00;99.90;;;;;;5035042;28;20072;-86
2022/08/26 06:53:41;;;;;;;16.63;2.92;;;14.90;99.90;;;;;;5023288;28;20020;-86
2022/08/26 06:56:09;;;;;;;12.02;3.35;;;15.00;99.90;;;;;;5022759;28;20030;-86
2022/08/26 06:58:37;;;;;;;13.43;3.35;;;15.10;99.90;;;;;;5038213;28;20037;-86
2022/08/26 07:01:04;;;;;;;12.45;2.97;;;15.20;99.90;;;;;;5024502;28;20091;-86
2022/08/26 07:03:29;;;;;;;13.50;3.30;;;15.20;99.90;;;;;;5037487;28;20022;-86
2022/08/26 07:06:02;;;;;;;15.27;3.45;;;15.30;99.90;;;;;;5028110;28;20048;-86
2022/08/26 07:08:28;;;;;;;13.23;3.00;;;15.30;99.90;;;;;;5027203;28;20062;-86
2022/08/26 07:10:53;;;;;;;11.85;3.30;;;15.40;99.90;;;;;;5023023;28;20414;-86
2022/08/26 07:13:21;;;;;;;14.63;3.00;;;15.50;99.90;;;;;;5025134;28;20088;-86
2022/08/26 07:15:48;;;;;;;17.30;3.15;;;15.60;99.90;;;;;;5024463;28;20248;-86
2022/08/26 07:18:13;;;;;;;16.88;3.40;;;15.60;99.90;;;;;;5031775;28;20089;-86
2022/08/26 07:20:59;;;;;;;14.10;3.45;;;15.50;99.90;;;;;;5024056;28;20018;-86
2022/08/26 07:23:25;;;;;;;23.05;3.13;;;15.60;99.90;;;;;;5023741;28;20593;-86
2022/08/26 07:25:50;;;;;;;17.92;3.95;;;15.80;99.90;;;;;;5025508;28;20041;-87
2022/08/26 07:28:16;;;;;;;18.70;3.75;;;15.70;99.90;;;;;;5025358;28;20026;-90
2022/08/26 07:30:42;;;;;;;18.65;3.45;;;15.80;99.90;;;;;;5029073;28;20022;-87
2022/08/26 07:33:07;;;;;;;22.75;3.17;;;15.80;99.90;;;;;;5037209;28;20038;-86
2022/08/26 07:35:33;;;;;;;21.10;3.45;;;15.90;99.90;;;;;;5029637;28;20033;-87
2022/08/26 07:38:00;;;;;;;23.23;3.55;;;16.00;99.90;;;;;;5024403;28;20025;-87
2022/08/26 07:40:26;;;;;;;14.00;3.25;;;16.10;99.90;;;;;;5032463;28;20073;-87
2022/08/26 07:42:52;;;;;;;16.35;2.97;;;16.20;99.90;;;;;;5030017;28;20022;-88
2022/08/26 07:45:17;;;;;;;19.80;3.30;;;16.30;99.90;;;;;;5031464;28;20030;-86
2022/08/26 07:47:43;;;;;;;22.45;3.17;;;16.40;99.90;;;;;;5035679;28;20124;-87
2022/08/26 07:50:09;;;;;;;19.13;3.10;;;16.50;99.90;;;;;;5024388;28;20026;-86
2022/08/26 07:52:36;;;;;;;14.32;3.25;;;16.80;99.90;;;;;;5025866;28;20038;-86
2022/08/26 07:55:07;;;;;;;21.23;3.75;;;16.70;99.90;;;;;;5024074;28;20076;-87
2022/08/26 07:57:33;;;;;;;;;;;16.80;99.90;;;;;;5025538;28;20014;-87
2022/08/26 07:59:59;;;;;;;17.50;2.95;;;16.90;99.90;;;;;;5024869;28;19909;-86
2022/08/26 08:02:27;;;;;;;21.33;3.92;;;17.00;99.90;;;;;;5045349;28;20056;-88
2022/08/26 08:04:53;;;;;;;21.53;3.27;;;17.10;99.90;;;;;;5027938;28;20014;-88
2022/08/26 08:07:19;;;;;;;21.85;3.53;;;17.20;99.90;;;;;;5023734;28;20064;-86
2022/08/26 08:09:48;;;;;;;19.38;3.35;;;17.20;99.90;;;;;;5025207;28;20038;-87
2022/08/26 08:12:29;;;;;;;21.08;3.65;;;17.40;99.90;;;;;;5028451;28;20034;-87
2022/08/26 08:14:55;;;;;;;19.75;3.85;;;17.40;99.90;;;;;;5024188;28;20042;-92
2022/08/26 08:17:20;;;;;;;22.38;3.28;;;17.50;99.90;;;;;;5028963;28;20014;-87
2022/08/26 08:19:46;;;;;;;30.50;4.00;;;17.70;99.90;;;;;;5027032;28;20033;-87
2022/08/26 08:22:12;;;;;;;23.90;3.72;;;17.70;99.90;;;;;;5026823;28;20002;-91
2022/08/26 08:24:38;;;;;;;31.88;3.72;;;17.90;99.90;;;;;;5027911;28;20026;-87
2022/08/26 08:27:03;;;;;;;29.63;3.67;;;17.80;99.90;;;;;;5026990;28;20037;-86
2022/08/26 08:29:29;;;;;;;20.50;4.10;;;17.90;99.90;;;;;;5027390;28;20014;-87
2022/08/26 08:32:07;;;;;;;21.15;3.80;;;18.00;99.90;;;;;;5026023;28;20537;-89
2022/08/26 08:34:33;;;;;;;;;;;17.90;99.90;;;;;;5034949;28;20074;-86
2022/08/26 08:36:58;;;;;;;18.83;3.78;;;18.80;99.90;;;;;;5031639;28;19955;-89
2022/08/26 08:39:25;;;;;;;23.05;3.75;;;18.00;99.90;;;;;;5048419;28;20032;-94
2022/08/26 08:42:04;;;;;;;14.90;3.42;;;18.00;99.90;;;;;;5026821;28;20061;-93
2022/08/26 08:44:32;;;;;;;22.95;3.40;;;18.20;99.90;;;;;;5030009;28;20045;-88
2022/08/26 08:47:03;;;;;;;21.48;3.65;;;18.60;99.90;;;;;;5029094;28;20030;-86
2022/08/26 08:49:31;;;;;;;16.30;3.67;;;18.20;99.90;;;;;;5021394;28;20053;-94
2022/08/26 08:52:28;;;;;;;14.35;3.10;;;18.50;99.90;;;;;;5022736;28;20022;-86
2022/08/26 08:54:54;;;;;;;21.13;3.45;;;18.80;99.90;;;;;;5022741;28;20042;-87
2022/08/26 08:57:40;;;;;;;26.85;3.80;;;18.90;99.90;;;;;;5025531;28;20014;-91
2022/08/26 09:00:16;;;;;;;19.60;3.33;;;18.90;99.90;;;;;;5030363;28;20032;-90
2022/08/26 09:03:07;;;;;;;25.88;4.13;;;19.70;99.90;;;;;;5032401;28;20034;-90
2022/08/26 09:05:42;;;;;;;22.40;3.25;;;19.00;99.90;;;;;;5028178;28;20042;-95
2022/08/26 09:08:22;;;;;;;23.15;3.60;;;19.00;99.90;;;;;;5034258;28;20086;-86
2022/08/26 09:10:54;;;;;;;20.38;3.70;;;19.20;99.90;;;;;;5033860;28;20030;-86
2022/08/26 09:13:20;;;;;;;24.40;3.38;;;19.30;99.90;;;;;;5030211;28;20057;-86
2022/08/26 09:16:07;;;;;;;19.48;3.40;;;19.30;99.90;;;;;;5032682;28;20030;-87
2022/08/26 09:18:56;;;;;;;18.50;3.60;;;19.60;99.90;;;;;;5027393;28;20088;-87
2022/08/26 09:21:23;;;;;;;20.15;3.75;;;19.70;99.90;;;;;;5035941;28;20014;-91
2022/08/26 09:23:55;;;;;;;20.65;3.40;;;19.60;99.90;;;;;;5031622;28;20092;-86
2022/08/26 09:26:42;;;;;;;18.17;3.05;;;19.60;99.90;;;;;;5033764;28;20009;-91
2022/08/26 09:29:18;;;;;;;16.90;3.00;;;19.50;99.90;;;;;;5025034;28;20034;-86
2022/08/26 09:31:44;;;;;;;19.58;3.50;;;19.50;99.90;;;;;;5020662;28;20110;-86
2022/08/26 09:34:25;;;;;;;19.60;3.03;;;19.60;99.90;;;;;;5032369;28;20034;-94
2022/08/26 09:36:56;;;;;;;19.55;3.03;;;19.50;99.90;;;;;;5018958;28;20018;-91
2022/08/26 09:39:35;;;;;;;20.40;3.20;;;19.50;99.90;;;;;;5034714;28;20022;-86
2022/08/26 09:42:11;;;;;;;18.35;3.25;;;19.50;99.90;;;;;;5016483;28;20040;-86
2022/08/26 09:45:02;;;;;;;21.00;3.20;;;19.50;99.90;;;;;;5032009;28;20033;-92
2022/08/26 09:47:32;;;;;;;20.05;3.35;;;19.50;99.90;;;;;;5012737;28;20101;-86
2022/08/26 09:50:05;;;;;;;18.15;2.88;;;19.50;99.90;;;;;;5018470;28;20398;-86
2022/08/26 09:52:31;;;;;;;16.48;3.20;;;19.10;99.90;;;;;;5015799;28;20046;-86
2022/08/26 09:55:08;;;;;;;15.75;4.03;;;19.50;99.90;;;;;;5012479;28;20061;-87
2022/08/26 09:57:49;;;;;;;19.13;3.15;;;19.70;99.90;;;;;;5015652;28;20057;-87
2022/08/26 10:00:47;;;;;;;13.82;2.90;;;19.90;99.90;;;;;;5014675;28;20508;-86
2022/08/26 10:03:28;;;;;;;18.40;3.95;;;19.70;99.90;;;;;;5018406;28;20071;-86
2022/08/26 10:06:00;;;;;;;23.60;3.72;;;19.50;99.90;;;;;;5014610;28;20026;-86
2022/08/26 10:08:31;;;;;;;13.18;3.03;;;19.40;99.90;;;;;;5014033;28;20508;-86
2022/08/26 10:11:24;;;;;;;18.63;3.10;;;19.30;99.90;;;;;;5013716;28;20836;-86
2022/08/26 10:14:01;;;;;;;18.20;3.03;;;19.20;99.90;;;;;;5014994;28;20064;-86
2022/08/26 10:16:51;;;;;;;15.85;3.20;;;19.20;99.90;;;;;;5014366;28;20663;-86
2022/08/26 10:19:33;;;;;;;16.80;2.90;;;19.20;99.90;;;;;;5019395;28;20508;-86
2022/08/26 10:22:10;;;;;;;13.18;3.05;;;19.30;99.90;;;;;;5018060;28;20024;-86
2022/08/26 10:24:41;;;;;;;17.88;3.20;;;19.60;99.90;;;;;;5016351;28;20021;-87
2022/08/26 10:27:18;;;;;;;16.67;2.70;;;19.80;99.90;;;;;;5033259;28;20026;-86
2022/08/26 10:29:50;;;;;;;16.73;3.27;;;20.00;99.90;;;;;;5014623;28;20026;-86
2022/08/26 10:32:27;;;;;;;13.52;3.17;;;20.20;99.90;;;;;;5015767;28;20045;-86
2022/08/26 10:34:52;;;;;;;14.48;2.95;;;20.20;99.90;;;;;;5017610;28;20006;-86
2022/08/26 10:37:22;;;;;;;17.25;3.10;;;19.90;99.90;;;;;;5014448;28;20021;-87
2022/08/26 10:40:01;;;;;;;15.00;2.75;;;19.90;99.90;;;;;;5013079;28;20042;-86
2022/08/26 10:42:40;;;;;;;14.27;2.65;;;19.70;99.90;;;;;;5013216;28;20034;-86
2022/08/26 10:45:24;;;;;;;11.18;2.72;;;20.00;99.90;;;;;;5012891;28;20051;-86
2022/08/26 10:47:55;;;;;;;20.45;3.08;;;20.20;99.90;;;;;;5014766;28;20033;-86
2022/08/26 10:50:26;;;;;;;12.27;2.47;;;20.60;99.90;;;;;;5011220;28;20025;-86
2022/08/26 10:53:18;;;;;;;9.63;2.20;;;20.40;99.90;;;;;;5015482;28;20087;-86
2022/08/26 10:55:49;;;;;;;16.35;2.83;;;20.60;99.90;;;;;;5017122;28;20053;-86
2022/08/26 10:58:32;;;;;;;15.38;2.80;;;20.80;99.90;;;;;;5030063;28;20076;-86
2022/08/26 11:04:26;;;;;;;11.38;2.10;;;21.00;99.90;;;;;;5015650;28;20133;-89
2022/08/26 11:07:29;;;;;;;20.27;2.90;;;21.00;99.90;;;;;;5019139;28;20030;-86
2022/08/26 11:09:57;;;;;;;12.70;2.65;;;20.60;99.90;;;;;;5015309;28;20074;-86
2022/08/26 11:12:37;;;;;;;19.10;2.53;;;20.50;99.90;;;;;;5015150;28;20371;-91
2022/08/26 11:15:12;;;;;;;10.68;2.55;;;20.50;99.90;;;;;;5019077;28;20022;-94
2022/08/26 11:17:43;;;;;;;12.93;2.88;;;20.60;99.90;;;;;;5014083;28;20101;-88
2022/08/26 11:20:32;;;;;;;13.77;2.30;;;20.80;99.90;;;;;;5015388;28;20021;-94
2022/08/26 11:23:19;;;;;;;9.75;2.30;;;21.10;99.90;;;;;;5028437;28;20045;-88
2022/08/26 11:26:06;;;;;;;15.75;2.65;;;21.30;99.90;;;;;;5028489;28;20045;-94
2022/08/26 11:28:47;;;;;;;10.88;2.03;;;21.10;99.90;;;;;;5021727;28;20057;-87
2022/08/26 11:31:24;;;;;;;10.65;2.30;;;20.90;99.90;;;;;;5023601;28;20026;-87
2022/08/26 11:34:02;;;;;;;11.02;2.03;;;20.90;99.90;;;;;;5038537;28;20037;-87
2022/08/26 11:36:39;;;;;;;6.35;1.90;;;20.90;99.90;;;;;;5027233;28;20092;-87
2022/08/26 11:39:17;;;;;;;9.27;2.38;;;21.00;99.90;;;;;;5020171;28;20033;-86
2022/08/26 11:41:45;;;;;;;11.15;2.60;;;20.90;99.90;;;;;;5044058;28;20490;-86
2022/08/26 11:44:15;;;;;;;;;;;20.90;99.90;;;;;;5024693;28;20032;-85
2022/08/26 11:46:58;;;;;;;7.05;2.00;;;21.60;99.90;;;;;;5016617;28;19906;-87
2022/08/26 11:49:25;;;;;;;11.23;2.83;;;21.00;99.90;;;;;;5029463;28;20014;-86
2022/08/26 11:51:51;;;;;;;12.93;2.40;;;20.90;99.90;;;;;;5022432;28;20013;-86
2022/08/26 11:54:22;;;;;;;9.20;2.03;;;20.90;99.90;;;;;;5050114;23;20496;-87
2022/08/26 11:56:51;;;;;;;13.18;2.45;;;20.80;99.90;;;;;;5048208;28;20038;-87
2022/08/26 11:59:29;;;;;;;13.05;2.78;;;20.90;99.90;;;;;;5046332;28;20025;-86
2022/08/26 12:01:55;;;;;;;10.35;2.17;;;21.10;99.90;;;;;;5033559;28;20048;-86
2022/08/26 12:04:27;;;;;;;12.82;2.75;;;21.20;99.90;;;;;;5035668;28;20021;-87
2022/08/26 12:06:54;;;;;;;10.18;2.88;;;21.40;99.90;;;;;;5033777;28;20080;-89
2022/08/26 12:09:26;;;;;;;8.60;2.20;;;21.10;99.90;;;;;;5033031;28;20437;-87
2022/08/26 12:12:07;;;;;;;10.80;1.92;;;21.70;99.90;;;;;;5030687;28;20028;-86
2022/08/26 12:14:40;;;;;;;7.82;2.28;;;20.90;99.90;;;;;;5046216;28;20028;-88
2022/08/26 12:17:30;;;;;;;7.68;2.10;;;20.80;99.90;;;;;;5059265;28;20040;-85
2022/08/26 12:19:56;;;;;;;8.10;2.00;;;20.90;99.90;;;;;;5030313;28;20033;-94
2022/08/26 12:22:26;;;;;;;8.40;2.28;;;21.00;99.90;;;;;;5032083;28;20042;-86
2022/08/26 12:25:06;;;;;;;8.20;2.15;;;21.10;99.90;;;;;;5046465;28;20029;-86
2022/08/26 12:27:35;;;;;;;9.73;2.17;;;21.30;99.90;;;;;;5029212;28;20470;-86
2022/08/26 12:30:07;;;;;;;9.57;2.35;;;21.40;99.90;;;;;;5029216;28;20481;-86
2022/08/26 12:32:33;;;;;;;7.75;1.92;;;21.50;99.90;;;;;;5044183;28;20036;-86
2022/08/26 12:35:01;;;;;;;11.48;2.65;;;21.40;99.90;;;;;;5029304;28;20017;-86
2022/08/26 12:37:31;;;;;;;9.70;2.53;;;21.20;99.90;;;;;;5029256;28;20474;-87
2022/08/26 12:40:34;;;;;;;14.48;2.30;;;21.30;99.90;;;;;;5029551;28;20658;-86
2022/08/26 12:43:02;;;;;;;9.80;2.38;;;21.40;99.90;;;;;;5028289;28;20120;-87
2022/08/26 12:45:56;;;;;;;11.38;2.25;;;21.50;99.90;;;;;;5045115;28;20054;-87
2022/08/26 12:48:27;;;;;;;7.82;2.20;;;21.70;99.90;;;;;;5028403;28;20044;-94
2022/08/26 12:50:54;;;;;;;6.30;2.00;;;21.60;99.90;;;;;;5029120;28;20021;-94
2022/08/26 12:53:29;;;;;;;10.55;2.60;;;21.60;99.90;;;;;;5028884;28;20283;-94
2022/08/26 12:55:58;;;;;;;7.45;2.00;;;21.70;99.90;;;;;;5032136;28;20053;-94
2022/08/26 12:58:30;;;;;;;6.30;1.90;;;22.40;99.90;;;;;;5033277;28;20022;-87
2022/08/26 13:01:07;;;;;;;7.65;2.25;;;21.90;99.90;;;;;;5037740;28;20029;-94
2022/08/26 13:03:33;;;;;;;9.43;2.08;;;21.90;99.90;;;;;;5059129;28;20026;-89
2022/08/26 13:06:31;;;;;;;8.52;1.90;;;22.10;99.90;;;;;;5060643;28;20490;-90
2022/08/26 13:09:05;;;;;;;12.45;2.38;;;22.10;99.90;;;;;;5035889;28;20082;-87
2022/08/26 13:11:32;;;;;;;6.80;2.20;;;22.10;99.90;;;;;;5040633;28;20030;-87